Time;durP1;ratioP1;P1;durP2;ratioP2;P2;SDS_P1;SDS_P2;PMS_P1;PMS_P2;Temp;Humidity;BMP_temperature;BMP_pressure;BME280_temperature;BME280_humidity;BME280_pressure;Samples;Min_cycle;Max_cycle;Signal;HPM_P1;HPM_P2
2021/08/04 00:00:04;;;;;;;4.70;2.55;;;;;;;16.92;79.53;100586.41;4991764;28;20125;-81
2021/08/04 00:02:32;;;;;;;5.35;2.75;;;;;;;16.88;79.94;100584.13;4987968;28;20152;-82
2021/08/04 00:04:59;;;;;;;4.57;2.95;;;;;;;17.00;79.12;100579.59;4988209;28;20137;-81
2021/08/04 00:07:26;;;;;;;6.70;3.03;;;;;;;16.90;79.68;100582.19;5016326;28;20100;-84
2021/08/04 00:09:53;;;;;;;4.40;2.88;;;;;;;16.75;80.29;100581.72;4999568;28;20540;-81
2021/08/04 00:12:21;;;;;;;4.85;2.80;;;;;;;16.80;79.61;100576.84;4971450;28;20516;-81
2021/08/04 00:14:48;;;;;;;3.95;2.50;;;;;;;16.88;78.87;100576.16;4970532;28;20141;-83
2021/08/04 00:17:16;;;;;;;4.85;2.92;;;;;;;16.89;78.81;100577.88;5004907;28;20186;-81
2021/08/04 00:19:43;;;;;;;5.93;2.75;;;;;;;16.81;79.39;100580.34;4971603;28;20096;-80
2021/08/04 00:22:14;;;;;;;5.07;2.58;;;;;;;16.78;79.48;100578.78;4980055;28;20448;-81
2021/08/04 00:24:41;;;;;;;4.63;2.63;;;;;;;16.91;79.15;100579.41;4997073;28;20333;-81
2021/08/04 00:27:08;;;;;;;7.45;3.08;;;;;;;16.81;79.45;100573.19;4973384;28;20115;-84
2021/08/04 00:29:35;;;;;;;6.35;3.00;;;;;;;16.77;80.05;100571.78;5006795;28;20445;-80
2021/08/04 00:32:03;;;;;;;4.47;2.97;;;;;;;16.89;79.47;100575.19;4984585;28;20078;-79
2021/08/04 00:34:30;;;;;;;4.65;2.90;;;;;;;16.73;79.97;100572.16;5000119;28;20470;-80
2021/08/04 00:36:59;;;;;;;4.60;2.78;;;;;;;16.61;81.05;100580.16;5003147;28;20060;-82
2021/08/04 00:39:26;;;;;;;3.83;3.17;;;;;;;16.70;80.83;100571.41;4975738;28;20137;-80
2021/08/04 00:41:53;;;;;;;7.22;2.92;;;;;;;16.59;81.32;100571.50;4986786;28;20078;-83
2021/08/04 00:44:20;;;;;;;3.45;2.83;;;;;;;16.75;80.55;100572.88;4982911;28;20136;-80
2021/08/04 00:46:48;;;;;;;4.40;2.83;;;;;;;16.74;81.06;100572.03;5000533;28;20050;-81
2021/08/04 00:49:15;;;;;;;5.28;2.72;;;;;;;16.76;80.83;100569.25;4994394;28;20081;-85
2021/08/04 00:51:42;;;;;;;3.40;2.72;;;;;;;16.70;80.21;100582.03;5006333;28;20065;-81
2021/08/04 00:54:10;;;;;;;6.95;2.63;;;;;;;16.71;80.92;100570.47;4951799;28;20417;-81
2021/08/04 00:56:37;;;;;;;3.05;2.50;;;;;;;16.74;79.52;100576.50;5001862;28;20400;-83
2021/08/04 00:59:06;;;;;;;3.17;2.33;;;;;;;16.66;79.32;100577.13;4966238;28;20050;-82
2021/08/04 01:01:50;;;;;;;3.65;2.38;;;;;;;16.55;80.09;100577.19;4989326;28;20281;-84
2021/08/04 01:04:23;;;;;;;3.88;2.45;;;;;;;16.56;80.01;100582.38;4989287;28;20058;-81
2021/08/04 01:07:05;;;;;;;4.10;2.53;;;;;;;16.47;80.55;100575.19;4976398;28;20053;-81
2021/08/04 01:09:42;;;;;;;3.17;2.20;;;;;;;16.35;81.06;100578.91;5014334;28;20310;-81
2021/08/04 01:12:12;;;;;;;3.83;2.40;;;;;;;16.42;80.46;100585.34;4972893;28;20069;-84
2021/08/04 01:14:41;;;;;;;3.25;2.10;;;;;;;16.37;80.50;100587.56;5006470;28;20184;-81
2021/08/04 01:17:10;;;;;;;3.60;2.15;;;;;;;16.33;80.40;100588.78;4990019;28;20100;-85
2021/08/04 01:20:15;;;;;;;3.47;2.28;;;;;;;16.25;81.19;100593.88;4990742;28;20046;-81
2021/08/04 01:23:11;;;;;;;3.50;2.55;;;;;;;16.23;81.53;100595.84;5000261;28;20046;-85
2021/08/04 01:26:01;;;;;;;2.53;2.05;;;;;;;16.45;79.72;100583.28;4968195;28;20505;-85
2021/08/04 01:28:37;;;;;;;2.65;1.88;;;;;;;16.32;80.37;100592.41;5003190;28;20448;-80
2021/08/04 01:31:06;;;;;;;4.00;2.75;;;;;;;16.33;79.96;100602.06;4995665;28;20080;-84
2021/08/04 01:33:36;;;;;;;3.67;2.58;;;;;;;16.28;80.34;100594.47;4976632;28;20571;-82
2021/08/04 01:36:04;;;;;;;9.40;4.43;;;;;;;16.37;79.69;100593.72;4995535;28;20514;-81
2021/08/04 01:38:31;;;;;;;9.60;4.97;;;;;;;16.40;78.96;100589.97;4989566;28;20057;-82
2021/08/04 01:41:00;;;;;;;4.53;3.47;;;;;;;16.38;79.09;100581.28;5000098;28;20084;-83
2021/08/04 01:43:29;;;;;;;4.03;3.33;;;;;;;16.23;80.14;100594.03;4988176;28;20046;-82
2021/08/04 01:45:56;;;;;;;8.70;3.42;;;;;;;16.24;80.30;100578.94;4979042;28;20050;-83
2021/08/04 01:48:24;;;;;;;4.35;3.28;;;;;;;16.27;80.38;100581.34;4980206;28;20126;-83
2021/08/04 01:50:53;;;;;;;5.22;3.35;;;;;;;16.32;79.27;100581.78;4993345;28;20447;-84
2021/08/04 01:53:22;;;;;;;4.65;2.50;;;;;;;16.19;80.31;100587.28;4990346;28;20145;-80
2021/08/04 01:55:49;;;;;;;5.03;2.80;;;;;;;16.20;80.65;100586.31;4967956;28;20433;-81
2021/08/04 01:58:17;;;;;;;4.18;2.75;;;;;;;16.31;80.67;100582.78;4990237;28;20052;-84
2021/08/04 02:00:44;;;;;;;3.28;2.30;;;;;;;16.29;80.55;100584.69;4984178;28;20556;-80
2021/08/04 02:03:11;;;;;;;4.20;2.72;;;;;;;16.15;81.12;100581.38;4989510;28;20073;-79
2021/08/04 02:05:41;;;;;;;6.30;2.83;;;;;;;16.24;81.01;100581.59;4977888;28;20060;-82
2021/08/04 02:08:40;;;;;;;5.82;2.50;;;;;;;16.16;81.41;100583.06;4983031;28;20282;-80
2021/08/04 02:11:30;;;;;;;3.17;2.22;;;;;;;16.22;81.59;100579.06;4998312;28;20137;-81
2021/08/04 02:14:03;;;;;;;3.45;2.40;;;;;;;16.36;81.71;100576.09;5002860;28;20508;-82
2021/08/04 02:16:49;;;;;;;6.10;2.80;;;;;;;16.31;80.96;100583.63;4984287;28;20461;-83
2021/08/04 02:19:21;;;;;;;;;;;;;;;16.32;81.35;100574.66;5008084;28;20052;-81
2021/08/04 02:21:59;;;;;;;4.57;2.60;;;;;;;16.28;81.67;100585.69;4972675;28;19922;-80
2021/08/04 02:24:30;;;;;;;5.03;2.58;;;;;;;16.38;81.40;100576.78;5009863;28;20049;-82
2021/08/04 02:26:59;;;;;;;3.47;2.53;;;;;;;16.32;81.55;100579.13;4978808;28;20140;-82
2021/08/04 02:29:30;;;;;;;5.32;3.05;;;;;;;16.32;81.93;100579.13;4989988;28;20074;-79
2021/08/04 02:31:57;;;;;;;4.18;3.05;;;;;;;16.32;82.02;100582.63;5004886;28;20138;-83
2021/08/04 02:34:28;;;;;;;5.63;3.15;;;;;;;16.27;82.32;100576.88;4978406;28;20104;-80
2021/08/04 02:36:55;;;;;;;3.53;2.70;;;;;;;16.30;83.19;100584.59;4980567;28;20050;-86
2021/08/04 02:39:22;;;;;;;3.47;3.00;;;;;;;16.26;84.03;100590.28;4960273;28;20137;-84
2021/08/04 02:41:53;;;;;;;8.50;3.38;;;;;;;16.19;84.66;100593.44;4989858;28;20123;-82
2021/08/04 02:44:20;;;;;;;5.95;3.60;;;;;;;16.15;85.29;100596.47;5000323;28;20354;-83
2021/08/04 02:46:48;;;;;;;4.60;2.97;;;;;;;16.10;85.42;100588.03;4992027;28;20388;-82
2021/08/04 02:49:15;;;;;;;3.92;3.17;;;;;;;16.20;84.98;100599.59;4975390;28;20134;-85
2021/08/04 02:51:43;;;;;;;4.47;3.30;;;;;;;16.14;85.10;100600.09;4971214;28;20488;-81
2021/08/04 02:54:12;;;;;;;6.22;3.38;;;;;;;16.26;84.82;100592.94;4973004;28;20128;-82
2021/08/04 02:56:39;;;;;;;6.25;3.08;;;;;;;16.19;84.95;100595.25;4990280;28;20060;-82
2021/08/04 02:59:07;;;;;;;4.43;3.33;;;;;;;16.34;84.71;100590.47;4957274;28;20128;-81
2021/08/04 03:01:34;;;;;;;6.38;3.90;;;;;;;16.45;84.36;100598.41;5007848;28;20061;-86
2021/08/04 03:04:02;;;;;;;6.72;3.53;;;;;;;16.48;84.75;100592.84;5007482;28;20050;-83
2021/08/04 03:06:29;;;;;;;3.85;3.17;;;;;;;16.48;84.52;100590.19;5008742;28;20077;-82
2021/08/04 03:08:56;;;;;;;5.45;3.67;;;;;;;16.31;85.78;100590.75;4973905;28;20420;-83
2021/08/04 03:11:24;;;;;;;8.85;3.35;;;;;;;16.30;86.36;100597.88;4992976;28;20050;-90
2021/08/04 03:13:51;;;;;;;5.45;3.72;;;;;;;16.17;87.34;100594.53;5007322;28;20050;-80
2021/08/04 03:16:18;;;;;;;6.18;3.67;;;;;;;16.30;87.23;100589.91;4993149;28;20068;-84
2021/08/04 03:18:45;;;;;;;4.05;3.45;;;;;;;16.23;87.92;100598.50;5013162;28;20141;-83
2021/08/04 03:21:12;;;;;;;5.90;3.60;;;;;;;16.14;88.58;100586.81;5000059;28;20077;-85
2021/08/04 03:23:40;;;;;;;4.78;4.00;;;;;;;16.14;88.83;100595.63;4994293;28;20260;-80
2021/08/04 03:26:07;;;;;;;9.88;3.95;;;;;;;16.23;88.92;100590.53;5013401;28;20080;-82
2021/08/04 03:28:34;;;;;;;8.07;4.68;;;;;;;16.10;89.79;100590.69;5010523;28;20033;-84
2021/08/04 03:31:01;;;;;;;8.90;4.28;;;;;;;16.08;90.48;100590.84;5010973;28;20366;-83
2021/08/04 03:33:28;;;;;;;8.02;4.43;;;;;;;16.00;91.45;100592.44;5004033;28;20050;-82
2021/08/04 03:35:56;;;;;;;6.18;4.40;;;;;;;15.77;93.20;100589.84;5009056;28;20054;-83
2021/08/04 03:38:23;;;;;;;7.70;4.38;;;;;;;15.85;93.21;100586.53;5000397;28;20150;-82
2021/08/04 03:40:50;;;;;;;6.25;4.05;;;;;;;15.97;92.70;100590.88;5010979;28;20084;-81
2021/08/04 03:43:17;;;;;;;6.18;4.68;;;;;;;15.95;92.92;100587.50;4979169;28;20058;-84
2021/08/04 03:45:44;;;;;;;10.15;5.05;;;;;;;15.89;93.11;100590.63;5006175;28;20463;-83
2021/08/04 03:48:11;;;;;;;6.80;4.32;;;;;;;15.98;93.06;100587.22;4986632;28;20449;-83
2021/08/04 03:50:41;;;;;;;5.38;4.50;;;;;;;16.05;92.38;100591.09;4990066;28;20054;-84
2021/08/04 03:53:08;;;;;;;7.28;4.90;;;;;;;15.89;93.68;100595.94;4995364;28;20145;-84
2021/08/04 03:55:35;;;;;;;8.05;4.40;;;;;;;15.92;93.91;100595.72;4993051;28;20128;-83
2021/08/04 03:58:03;;;;;;;7.78;4.63;;;;;;;15.97;93.74;100596.16;4985013;28;20093;-82
2021/08/04 04:00:30;;;;;;;6.97;4.35;;;;;;;15.90;94.38;100600.31;4992033;28;20391;-81
2021/08/04 04:02:57;;;;;;;6.90;4.80;;;;;;;15.87;94.73;100609.34;4987751;28;20046;-81
2021/08/04 04:05:24;;;;;;;6.15;3.95;;;;;;;15.94;93.69;100607.06;4991988;28;20108;-83
2021/08/04 04:07:52;;;;;;;7.45;4.60;;;;;;;15.88;94.25;100608.38;4997595;28;20496;-81
2021/08/04 04:10:22;;;;;;;7.75;4.75;;;;;;;16.02;93.97;100607.25;4992859;28;20427;-82
2021/08/04 04:12:50;;;;;;;5.57;4.85;;;;;;;15.88;94.95;100611.03;4977494;28;20050;-82
2021/08/04 04:15:18;;;;;;;7.57;4.63;;;;;;;15.93;95.10;100613.31;4988427;28;20085;-81
2021/08/04 04:17:45;;;;;;;5.22;4.60;;;;;;;15.98;94.44;100620.91;4990825;28;20045;-83
2021/08/04 04:20:12;;;;;;;4.53;3.88;;;;;;;15.95;94.70;100622.03;4974458;28;20113;-79
2021/08/04 04:22:44;;;;;;;7.35;4.63;;;;;;;15.97;94.76;100624.53;4988848;28;20129;-80
2021/08/04 04:25:14;;;;;;;7.53;5.07;;;;;;;15.98;94.67;100628.88;4991423;28;20057;-80
2021/08/04 04:27:42;;;;;;;8.68;5.10;;;;;;;16.04;94.27;100631.06;4985898;28;20052;-84
2021/08/04 04:30:10;;;;;;;9.52;4.68;;;;;;;16.02;94.24;100628.50;4990081;28;20124;-81
2021/08/04 04:32:37;;;;;;;7.38;5.20;;;;;;;15.98;94.45;100631.53;4989260;28;20124;-84
2021/08/04 04:35:06;;;;;;;6.75;5.28;;;;;;;16.05;93.80;100625.59;4971095;28;20140;-83
2021/08/04 04:37:33;;;;;;;7.38;5.22;;;;;;;16.00;94.38;100626.94;5001906;28;21366;-84
2021/08/04 04:40:00;;;;;;;9.15;4.85;;;;;;;16.19;93.61;100622.66;4979410;28;20510;-81
2021/08/04 04:42:27;;;;;;;7.63;5.05;;;;;;;16.17;93.18;100632.56;4995043;28;20397;-83
2021/08/04 04:44:54;;;;;;;6.90;5.03;;;;;;;16.20;93.26;100637.59;4968957;28;20141;-81
2021/08/04 04:47:22;;;;;;;5.32;4.75;;;;;;;16.14;94.15;100626.66;4993908;28;20054;-82
2021/08/04 04:49:49;;;;;;;8.90;5.25;;;;;;;16.19;93.54;100632.44;4982642;28;20105;-82
2021/08/04 04:52:16;;;;;;;6.47;5.03;;;;;;;16.31;92.62;100634.09;4992090;28;20144;-82
2021/08/04 04:54:44;;;;;;;9.10;5.50;;;;;;;16.39;92.00;100636.09;4979642;28;20153;-85
2021/08/04 04:57:11;;;;;;;8.05;5.25;;;;;;;16.34;92.11;100638.28;5005519;28;20125;-84
2021/08/04 04:59:38;;;;;;;7.28;5.07;;;;;;;16.35;91.93;100640.84;4978683;28;20061;-82
2021/08/04 05:02:05;;;;;;;7.78;5.20;;;;;;;16.35;92.17;100642.66;5008651;28;20068;-83
2021/08/04 05:04:33;;;;;;;11.55;6.03;;;;;;;16.36;92.51;100641.69;4994597;28;20053;-81
2021/08/04 05:07:00;;;;;;;7.40;5.03;;;;;;;16.36;92.55;100634.53;5007091;28;20108;-85
2021/08/04 05:09:27;;;;;;;12.82;5.47;;;;;;;16.59;91.09;100647.72;4993195;28;20045;-82
2021/08/04 05:11:54;;;;;;;5.57;4.57;;;;;;;16.61;91.45;100640.44;5009996;28;20410;-81
2021/08/04 05:14:21;;;;;;;12.20;5.07;;;;;;;16.76;90.24;100646.34;4990242;28;20434;-81
2021/08/04 05:16:49;;;;;;;8.52;5.80;;;;;;;16.78;89.94;100645.22;4982050;28;20053;-81
2021/08/04 05:19:16;;;;;;;7.75;6.22;;;;;;;16.88;89.16;100640.81;4990826;28;21036;-85
2021/08/04 05:21:43;;;;;;;5.93;5.38;;;;;;;16.87;89.50;100646.28;5019999;28;20133;-82
2021/08/04 05:24:11;;;;;;;8.23;5.63;;;;;;;17.06;88.19;100648.19;5008206;28;20049;-83
2021/08/04 05:26:38;;;;;;;9.50;6.00;;;;;;;17.17;87.65;100648.97;5007863;28;20086;-81
2021/08/04 05:29:05;;;;;;;12.23;5.80;;;;;;;17.19;87.67;100646.16;5004386;28;20084;-80
2021/08/04 05:31:32;;;;;;;7.18;5.70;;;;;;;17.40;85.92;100643.47;5008598;28;20077;-83
2021/08/04 05:33:59;;;;;;;6.43;5.53;;;;;;;17.31;86.88;100652.25;4992697;28;20053;-82
2021/08/04 05:36:27;;;;;;;7.80;5.22;;;;;;;17.52;85.89;100657.53;5000064;28;20481;-85
2021/08/04 05:38:54;;;;;;;10.95;5.35;;;;;;;18.19;81.90;100657.72;5021433;28;20042;-80
2021/08/04 05:41:22;;;;;;;10.07;5.30;;;;;;;18.33;79.67;100659.16;4975154;28;20069;-83
2021/08/04 05:43:49;;;;;;;7.90;4.65;;;;;;;18.27;79.19;100658.84;5022591;28;20060;-81
2021/08/04 05:46:16;;;;;;;8.25;5.20;;;;;;;18.05;80.42;100655.44;5003561;28;20041;-83
2021/08/04 05:48:43;;;;;;;8.18;5.25;;;;;;;18.09;80.10;100656.03;4985081;28;20060;-84
2021/08/04 05:51:11;;;;;;;5.25;4.57;;;;;;;17.91;80.78;100662.00;4989908;28;20042;-84
2021/08/04 05:53:38;;;;;;;5.18;4.30;;;;;;;18.17;79.45;100667.66;5006131;28;20042;-83
2021/08/04 05:56:05;;;;;;;5.32;4.47;;;;;;;18.13;79.43;100663.59;5008831;28;20081;-81
2021/08/04 05:58:32;;;;;;;8.05;5.10;;;;;;;18.27;78.97;100669.50;4973229;28;20065;-81
2021/08/04 06:01:00;;;;;;;6.22;4.88;;;;;;;18.55;77.68;100674.03;4977974;28;20084;-80
2021/08/04 06:03:27;;;;;;;10.93;5.95;;;;;;;18.28;78.38;100674.72;4995823;28;20045;-82
2021/08/04 06:05:56;;;;;;;6.90;4.53;;;;;;;18.60;77.02;100671.78;4978318;28;20128;-81
2021/08/04 06:08:24;;;;;;;8.65;4.88;;;;;;;18.62;76.81;100679.63;4975234;28;20149;-82
2021/08/04 06:10:51;;;;;;;5.95;4.00;;;;;;;18.83;75.36;100672.34;4977245;28;20396;-84
2021/08/04 06:13:18;;;;;;;6.68;4.53;;;;;;;18.77;74.94;100677.38;4967461;28;20096;-80
2021/08/04 06:15:49;;;;;;;6.88;4.25;;;;;;;18.77;75.36;100672.88;4979068;28;20121;-86
2021/08/04 06:18:16;;;;;;;6.45;4.40;;;;;;;19.05;73.88;100667.66;5000397;28;20076;-82
2021/08/04 06:20:43;;;;;;;5.45;3.63;;;;;;;18.96;74.36;100677.38;5002251;28;20128;-82
2021/08/04 06:23:10;;;;;;;5.57;3.78;;;;;;;19.10;73.84;100679.59;4985913;28;20129;-82
2021/08/04 06:25:38;;;;;;;5.95;3.90;;;;;;;19.38;72.35;100676.97;5011942;28;20073;-86
2021/08/04 06:28:05;;;;;;;4.60;3.67;;;;;;;19.89;69.71;100676.47;5022659;28;20567;-80
2021/08/04 06:30:33;;;;;;;8.45;3.72;;;;;;;19.85;69.07;100671.59;4994745;28;20448;-80
2021/08/04 06:33:00;;;;;;;5.82;4.20;;;;;;;20.18;68.16;100680.81;4984317;28;20057;-82
2021/08/04 06:35:31;;;;;;;13.70;4.28;;;;;;;20.05;68.30;100677.69;4963637;28;20428;-84
2021/08/04 06:37:59;;;;;;;6.70;3.13;;;;;;;20.38;66.23;100677.00;4997621;28;20046;-84
2021/08/04 06:40:27;;;;;;;4.03;2.83;;;;;;;20.62;65.15;100679.09;5010528;28;20237;-80
2021/08/04 06:42:54;;;;;;;4.97;3.65;;;;;;;20.48;65.34;100676.94;5008267;28;20069;-83
2021/08/04 06:45:22;;;;;;;4.60;3.20;;;;;;;20.44;66.09;100672.88;4986127;28;20137;-80
2021/08/04 06:47:49;;;;;;;8.38;3.58;;;;;;;20.63;64.70;100675.44;5006908;28;20038;-82
2021/08/04 06:50:16;;;;;;;5.22;3.30;;;;;;;20.98;62.97;100673.69;4986416;28;20057;-80
2021/08/04 06:52:43;;;;;;;4.00;3.20;;;;;;;21.10;63.03;100674.28;4971319;28;20030;-83
2021/08/04 06:55:12;;;;;;;5.82;3.17;;;;;;;21.36;61.30;100675.13;4989955;28;20448;-81
2021/08/04 06:57:39;;;;;;;4.35;3.33;;;;;;;21.23;60.84;100678.19;5006783;28;20376;-81
2021/08/04 07:00:07;;;;;;;5.18;3.08;;;;;;;21.22;61.52;100684.56;4971630;28;20615;-83
2021/08/04 07:02:34;;;;;;;4.93;3.17;;;;;;;21.17;61.75;100683.38;4974601;28;20046;-81
2021/08/04 07:05:02;;;;;;;7.85;3.40;;;;;;;21.05;62.84;100681.94;4980063;28;20045;-82
2021/08/04 07:07:33;;;;;;;3.40;3.00;;;;;;;20.98;62.48;100679.91;4993976;28;20170;-84
2021/08/04 07:10:04;;;;;;;3.88;3.35;;;;;;;21.16;61.76;100678.97;4982342;28;20037;-84
2021/08/04 07:13:00;;;;;;;5.32;3.33;;;;;;;21.15;61.48;100680.81;5003843;28;20049;-85
2021/08/04 07:19:42;;;;;;;6.13;2.88;;;;;;;21.30;60.80;100685.59;4993447;28;20061;-85
2021/08/04 07:22:12;;;;;;;4.90;2.92;;;;;;;21.34;60.17;100682.47;4950407;28;20130;-80
2021/08/04 07:24:40;;;;;;;7.03;3.15;;;;;;;20.95;61.44;100695.41;5003936;28;20121;-82
2021/08/04 07:27:07;;;;;;;2.78;2.17;;;;;;;20.95;61.52;100690.06;4990712;28;20143;-83
2021/08/04 07:29:34;;;;;;;5.25;2.83;;;;;;;21.13;60.96;100695.38;4975405;28;20124;-80
2021/08/04 07:32:02;;;;;;;5.65;2.45;;;;;;;21.31;60.54;100690.84;4977390;28;20156;-82
2021/08/04 07:34:29;;;;;;;4.75;2.65;;;;;;;21.51;60.00;100695.97;4997067;28;20042;-81
2021/08/04 07:36:57;;;;;;;5.47;2.70;;;;;;;21.30;60.85;100697.16;4960012;28;20149;-80
2021/08/04 07:39:24;;;;;;;5.00;3.42;;;;;;;21.23;61.28;100694.25;4980165;28;20041;-79
2021/08/04 07:41:54;;;;;;;8.02;3.60;;;;;;;21.40;60.26;100694.41;5004405;28;20141;-79
2021/08/04 07:44:27;;;;;;;3.58;3.00;;;;;;;21.39;60.33;100693.56;5010390;28;20069;-83
2021/08/04 07:46:54;;;;;;;7.65;3.20;;;;;;;21.38;60.94;100693.72;4984473;28;20416;-80
2021/08/04 07:49:21;;;;;;;4.80;3.10;;;;;;;21.59;60.29;100694.16;4991306;28;20137;-80
2021/08/04 07:51:49;;;;;;;4.80;3.20;;;;;;;21.78;59.31;100698.44;4976191;28;20093;-82
2021/08/04 07:54:17;;;;;;;6.75;3.55;;;;;;;21.28;61.10;100691.13;4992883;28;20155;-80
2021/08/04 07:56:44;;;;;;;4.38;3.35;;;;;;;20.85;62.58;100692.84;4993902;28;20049;-82
2021/08/04 07:59:11;;;;;;;5.53;3.25;;;;;;;21.07;62.50;100687.97;4984446;28;20590;-86
2021/08/04 08:01:39;;;;;;;4.55;3.33;;;;;;;21.80;60.11;100687.56;4977104;28;20313;-81
2021/08/04 08:04:07;;;;;;;7.53;3.25;;;;;;;21.94;59.07;100693.13;4977384;28;20129;-81
2021/08/04 08:06:35;;;;;;;5.90;3.10;;;;;;;21.11;62.34;100689.31;4990063;28;20148;-80
2021/08/04 08:09:02;;;;;;;4.78;3.00;;;;;;;20.80;63.59;100688.94;5000197;28;20069;-80
2021/08/04 08:11:29;;;;;;;6.05;3.30;;;;;;;21.01;63.38;100684.06;4993749;28;20046;-85
2021/08/04 08:13:57;;;;;;;8.35;3.20;;;;;;;21.28;62.55;100684.94;5030906;28;20042;-84
2021/08/04 08:16:24;;;;;;;5.93;2.80;;;;;;;21.68;60.62;100685.16;5026093;28;20110;-81
2021/08/04 08:18:55;;;;;;;5.72;3.50;;;;;;;22.06;59.23;100682.94;4976988;28;20050;-79
2021/08/04 08:21:23;;;;;;;5.43;2.90;;;;;;;21.70;60.08;100680.50;4994096;28;20444;-85
2021/08/04 08:23:51;;;;;;;4.57;2.92;;;;;;;21.67;59.77;100682.66;4978516;28;20124;-80
2021/08/04 08:26:21;;;;;;;4.38;3.00;;;;;;;21.73;60.42;100685.50;5011071;28;20081;-84
2021/08/04 08:28:48;;;;;;;4.85;3.17;;;;;;;21.21;62.23;100684.72;4991448;28;20064;-83
2021/08/04 08:31:15;;;;;;;5.97;3.17;;;;;;;21.70;60.96;100685.88;4985285;28;20043;-80
2021/08/04 08:33:43;;;;;;;7.97;3.70;;;;;;;22.07;60.07;100684.66;4958156;28;20073;-81
2021/08/04 08:36:10;;;;;;;7.32;3.45;;;;;;;22.09;59.63;100687.16;4975307;28;20046;-84
2021/08/04 08:38:37;;;;;;;4.72;3.10;;;;;;;22.29;55.61;100690.41;4988805;28;20586;-80
2021/08/04 08:41:06;;;;;;;4.90;2.50;;;;;;;22.35;54.15;100687.06;4977333;28;20445;-82
2021/08/04 08:43:34;;;;;;;5.43;2.42;;;;;;;22.31;53.76;100683.03;5006989;28;20432;-82
2021/08/04 08:46:02;;;;;;;5.40;2.17;;;;;;;22.75;53.64;100687.09;4976407;28;20489;-80
2021/08/04 08:48:30;;;;;;;11.43;2.28;;;;;;;23.07;51.79;100688.13;4990562;28;20121;-81
2021/08/04 08:50:57;;;;;;;2.80;2.17;;;;;;;23.55;50.69;100675.59;4997889;28;20041;-81
2021/08/04 08:53:24;;;;;;;4.53;2.35;;;;;;;23.92;48.88;100674.94;4973911;28;20558;-81
2021/08/04 08:55:53;;;;;;;5.38;2.38;;;;;;;23.69;49.87;100671.34;5011419;28;20046;-81
2021/08/04 08:58:21;;;;;;;3.10;2.17;;;;;;;23.97;49.34;100674.41;4990760;28;20049;-81
2021/08/04 09:00:48;;;;;;;2.67;2.15;;;;;;;24.43;48.12;100675.31;4993682;28;20062;-80
2021/08/04 09:03:18;;;;;;;6.80;2.03;;;;;;;24.67;47.03;100674.28;5008866;28;20067;-83
2021/08/04 09:05:48;;;;;;;6.00;2.70;;;;;;;24.26;47.85;100679.09;4979588;28;20351;-79
2021/08/04 09:08:29;;;;;;;3.17;2.00;;;;;;;24.10;48.08;100677.38;4979832;28;20134;-81
2021/08/04 09:10:58;;;;;;;3.80;2.33;;;;;;;23.87;47.99;100674.63;4989741;28;20060;-82
2021/08/04 09:13:32;;;;;;;3.55;2.28;;;;;;;23.59;49.09;100676.06;4995520;28;20042;-81
2021/08/04 09:16:10;;;;;;;;;;;;;;;23.82;49.11;100673.47;4970747;28;20038;-81
2021/08/04 09:18:43;;;;;;;5.95;2.60;;;;;;;23.67;49.73;100659.94;4987969;28;19948;-81
2021/08/04 09:21:11;;;;;;;3.72;2.63;;;;;;;23.87;49.40;100663.03;4957927;28;20046;-80
2021/08/04 09:23:47;;;;;;;3.88;2.53;;;;;;;23.31;51.17;100675.63;4982705;28;20049;-80
2021/08/04 09:26:21;;;;;;;5.47;3.28;;;;;;;23.22;51.07;100670.28;5011395;28;20429;-81
2021/08/04 09:29:03;;;;;;;5.68;2.92;;;;;;;24.00;50.07;100661.47;5004784;28;20054;-81
2021/08/04 09:31:49;;;;;;;6.63;2.95;;;;;;;24.23;49.76;100661.47;5009729;28;20042;-82
2021/08/04 09:34:36;;;;;;;8.63;2.63;;;;;;;24.38;47.92;100668.81;5006985;28;20409;-80
2021/08/04 09:37:04;;;;;;;3.45;2.17;;;;;;;23.84;49.38;100660.69;5023907;28;20624;-83
2021/08/04 09:39:32;;;;;;;5.03;2.55;;;;;;;23.89;48.72;100671.75;4977564;28;20108;-79
2021/08/04 09:42:00;;;;;;;4.28;2.67;;;;;;;23.99;48.49;100667.00;4965812;28;20100;-83
2021/08/04 09:44:28;;;;;;;4.50;2.72;;;;;;;23.60;48.41;100657.09;4995729;28;20141;-79
2021/08/04 09:47:12;;;;;;;3.97;2.17;;;;;;;23.87;47.44;100661.19;4995564;28;20157;-79
2021/08/04 09:49:43;;;;;;;4.13;2.20;;;;;;;24.26;45.77;100665.66;4983923;28;20507;-83
2021/08/04 09:52:11;;;;;;;3.05;2.28;;;;;;;24.47;45.99;100654.28;5000085;28;20034;-80
2021/08/04 09:54:40;;;;;;;8.02;2.53;;;;;;;24.15;46.75;100661.53;4980134;28;20077;-82
2021/08/04 09:57:08;;;;;;;9.25;2.35;;;;;;;23.57;48.04;100652.06;5001471;28;20109;-81
2021/08/04 09:59:35;;;;;;;5.45;2.03;;;;;;;24.11;47.69;100654.00;5029578;28;20147;-80
2021/08/04 10:02:04;;;;;;;5.63;2.60;;;;;;;24.96;45.06;100651.97;4994699;28;20046;-81
2021/08/04 10:04:33;;;;;;;8.07;2.70;;;;;;;24.86;45.49;100661.34;4981393;28;20468;-81
2021/08/04 10:07:08;;;;;;;7.47;2.42;;;;;;;24.28;47.14;100652.88;4977748;28;20045;-83
2021/08/04 10:09:36;;;;;;;4.15;2.50;;;;;;;24.30;45.77;100652.69;4996017;28;20033;-80
2021/08/04 10:12:09;;;;;;;4.47;2.80;;;;;;;24.41;45.92;100655.84;4975973;28;20038;-81
2021/08/04 10:14:36;;;;;;;7.18;2.25;;;;;;;24.80;45.08;100654.00;4985804;28;20112;-81
2021/08/04 10:17:05;;;;;;;7.30;2.05;;;;;;;24.64;45.41;100663.06;4962053;28;20038;-83
2021/08/04 10:19:33;;;;;;;4.68;2.30;;;;;;;24.43;46.54;100661.88;4996082;28;20073;-79
2021/08/04 10:22:00;;;;;;;2.75;2.00;;;;;;;23.78;48.44;100658.72;4980451;28;20049;-84
2021/08/04 10:24:28;;;;;;;5.80;2.08;;;;;;;23.64;49.50;100654.84;5015782;28;20054;-83
2021/08/04 10:26:55;;;;;;;8.15;2.65;;;;;;;23.93;48.81;100648.88;4994282;28;20084;-79
2021/08/04 10:29:22;;;;;;;3.33;2.22;;;;;;;23.81;47.22;100661.03;4990528;28;20042;-82
2021/08/04 10:31:50;;;;;;;2.75;2.30;;;;;;;23.62;47.64;100648.84;4976222;28;20093;-78
2021/08/04 10:34:27;;;;;;;3.67;2.50;;;;;;;23.93;48.00;100651.56;4990028;28;20473;-83
2021/08/04 10:36:57;;;;;;;3.97;2.40;;;;;;;24.54;45.61;100649.81;4993680;28;20874;-81
2021/08/04 10:39:25;;;;;;;4.60;2.38;;;;;;;24.49;45.36;100654.91;5004380;28;20220;-80
2021/08/04 10:42:07;;;;;;;3.20;1.75;;;;;;;24.45;45.06;100650.91;4971110;28;20057;-83
2021/08/04 10:44:35;;;;;;;3.08;2.38;;;;;;;24.07;45.45;100640.06;5018941;28;20452;-80
2021/08/04 10:47:04;;;;;;;4.82;2.22;;;;;;;23.84;46.70;100641.88;5001407;28;20121;-82
2021/08/04 10:49:34;;;;;;;3.92;2.10;;;;;;;23.59;47.34;100633.88;4993975;28;20130;-83
2021/08/04 10:52:09;;;;;;;3.40;2.08;;;;;;;23.16;47.61;100652.19;4995108;28;20489;-80
2021/08/04 10:54:37;;;;;;;3.45;1.90;;;;;;;22.54;49.08;100662.59;4993598;28;20101;-79
2021/08/04 10:57:05;;;;;;;2.85;2.03;;;;;;;22.42;49.19;100650.53;4978884;28;20507;-83
2021/08/04 10:59:33;;;;;;;3.35;2.00;;;;;;;22.46;49.26;100649.19;4987132;28;20073;-81
2021/08/04 11:02:03;;;;;;;2.88;1.88;;;;;;;22.57;49.56;100656.09;4992550;28;20049;-82
2021/08/04 11:04:32;;;;;;;5.28;2.20;;;;;;;22.19;50.20;100661.06;4987092;28;20038;-82
2021/08/04 11:07:09;;;;;;;5.07;2.60;;;;;;;21.91;49.24;100653.25;4995458;28;20218;-80
2021/08/04 11:09:45;;;;;;;3.47;2.47;;;;;;;21.76;51.52;100649.53;4991765;28;20480;-81
2021/08/04 11:12:27;;;;;;;4.53;2.00;;;;;;;21.07;53.24;100643.28;5001240;28;20061;-81
2021/08/04 11:14:56;;;;;;;3.85;2.38;;;;;;;21.47;52.84;100644.53;4974967;28;20049;-79
2021/08/04 11:17:25;;;;;;;3.28;1.92;;;;;;;21.68;51.65;100633.41;4978834;28;20132;-81
2021/08/04 11:20:10;;;;;;;4.85;1.83;;;;;;;22.01;50.27;100637.03;5006494;28;20141;-80
2021/08/04 11:22:43;;;;;;;4.13;2.10;;;;;;;22.14;50.51;100640.09;5014080;28;20175;-82
2021/08/04 11:25:33;;;;;;;2.65;1.88;;;;;;;22.10;49.80;100644.06;4995233;28;20073;-82
2021/08/04 11:28:00;;;;;;;4.03;1.80;;;;;;;22.08;49.88;100640.75;4992383;28;20133;-79
2021/08/04 11:30:32;;;;;;;8.20;2.13;;;;;;;21.89;49.50;100643.72;5007928;28;20068;-80
2021/08/04 11:33:18;;;;;;;4.15;1.95;;;;;;;21.74;49.48;100638.13;5020710;28;20120;-79
2021/08/04 11:35:46;;;;;;;4.65;1.83;;;;;;;21.89;49.28;100641.03;4979481;28;20074;-79
2021/08/04 11:38:13;;;;;;;3.17;1.83;;;;;;;21.90;48.97;100640.03;4990767;28;20473;-80